createdAt,value
2022-11-01T00:00:32.445Z,3.55
2022-11-01T00:03:03.514Z,4.55
2022-11-01T00:05:37.796Z,3.38
2022-11-01T00:08:05.883Z,3.50
2022-11-01T00:10:37.791Z,3.30
2022-11-01T00:13:25.441Z,3.35
2022-11-01T00:15:52.956Z,3.25
2022-11-01T00:18:35.185Z,3.33
2022-11-01T00:21:05.190Z,4.28
2022-11-01T00:23:35.152Z,4.30
2022-11-01T00:26:10.057Z,3.30
2022-11-01T00:28:52.013Z,3.25
2022-11-01T00:31:25.148Z,2.85
2022-11-01T00:33:54.447Z,3.33
2022-11-01T00:39:16.908Z,2.88
2022-11-01T00:41:44.513Z,2.85
2022-11-01T00:44:11.926Z,2.85
2022-11-01T00:46:59.647Z,3.03
2022-11-01T00:49:27.515Z,2.83
2022-11-01T00:52:00.791Z,2.88
2022-11-01T00:54:34.002Z,4.22
2022-11-01T00:57:02.962Z,2.72
2022-11-01T00:59:33.123Z,2.65
2022-11-01T01:02:04.358Z,2.75
2022-11-01T01:04:43.598Z,2.78
2022-11-01T01:07:19.616Z,3.13
2022-11-01T01:09:49.571Z,2.60
2022-11-01T01:12:16.832Z,3.00
2022-11-01T01:14:49.926Z,3.55
2022-11-01T01:17:23.451Z,3.28
2022-11-01T01:19:55.249Z,2.95
2022-11-01T01:22:31.808Z,2.58
2022-11-01T01:24:59.651Z,2.95
2022-11-01T01:27:36.747Z,3.30
2022-11-01T01:30:07.966Z,3.70
2022-11-01T01:32:38.416Z,3.25
2022-11-01T01:35:09.112Z,3.92
2022-11-01T01:37:42.849Z,2.50
2022-11-01T01:40:10.819Z,2.92
2022-11-01T01:42:53.135Z,3.28
2022-11-01T01:45:27.904Z,2.75
2022-11-01T01:47:58.059Z,2.80
2022-11-01T01:50:33.856Z,3.08
2022-11-01T01:53:16.772Z,2.83
2022-11-01T01:56:13.589Z,2.45
2022-11-01T01:58:58.341Z,3.03
2022-11-01T02:01:45.630Z,2.25
2022-11-01T02:04:30.123Z,2.75
2022-11-01T02:06:59.942Z,2.42
2022-11-01T02:09:31.799Z,2.97
2022-11-01T02:12:07.949Z,2.42
2022-11-01T02:14:55.958Z,2.90
2022-11-01T02:17:55.561Z,3.40
2022-11-01T02:20:46.157Z,2.60
2022-11-01T02:23:32.178Z,2.85
2022-11-01T02:26:14.990Z,2.25
2022-11-01T02:29:05.784Z,3.28
2022-11-01T02:31:55.230Z,3.30
2022-11-01T02:34:46.527Z,2.90
2022-11-01T02:40:20.550Z,2.90
2022-11-01T02:42:57.658Z,2.58
2022-11-01T02:45:54.792Z,2.88
2022-11-01T02:48:31.619Z,2.60
2022-11-01T02:51:08.830Z,3.00
2022-11-01T02:53:42.624Z,3.35
2022-11-01T02:56:11.416Z,3.17
2022-11-01T02:58:42.082Z,3.15
2022-11-01T03:01:19.430Z,3.20
2022-11-01T03:03:51.101Z,4.25
2022-11-01T03:09:03.141Z,3.50
2022-11-01T03:11:54.486Z,3.38
2022-11-01T03:20:51.583Z,4.20
2022-11-01T03:23:31.324Z,3.83
2022-11-01T03:26:02.844Z,3.63
2022-11-01T03:28:49.865Z,4.15
2022-11-01T03:31:28.895Z,3.80
2022-11-01T03:34:03.334Z,3.85
2022-11-01T03:36:39.702Z,3.75
2022-11-01T03:39:28.361Z,3.83
2022-11-01T03:42:03.645Z,3.20
2022-11-01T03:44:39.991Z,3.45
2022-11-01T03:47:07.921Z,3.60
2022-11-01T03:49:44.686Z,3.45
2022-11-01T03:52:12.491Z,3.80
2022-11-01T03:54:42.738Z,4.20
2022-11-01T04:00:09.229Z,4.45
2022-11-01T04:02:39.652Z,3.65
2022-11-01T04:05:07.781Z,3.95
2022-11-01T04:07:35.570Z,4.47
2022-11-01T04:10:03.006Z,3.60
2022-11-01T04:12:31.062Z,2.90
2022-11-01T04:15:18.346Z,3.08
2022-11-01T04:18:31.133Z,4.45
2022-11-01T04:21:06.063Z,3.70
2022-11-01T04:23:34.971Z,4.32
2022-11-01T04:26:06.430Z,4.45
2022-11-01T04:28:57.494Z,3.72
2022-11-01T04:31:37.357Z,4.57
2022-11-01T04:34:11.605Z,3.80
2022-11-01T04:36:48.494Z,4.40
2022-11-01T04:39:16.413Z,4.40
2022-11-01T04:41:44.537Z,4.43
2022-11-01T04:44:21.649Z,3.67
2022-11-01T04:46:49.525Z,4.63
2022-11-01T04:49:19.943Z,4.10
2022-11-01T04:51:50.487Z,4.85
2022-11-01T04:54:22.369Z,4.75
2022-11-01T04:56:58.716Z,4.20
2022-11-01T04:59:28.544Z,4.22
2022-11-01T05:01:55.923Z,4.10
2022-11-01T05:04:25.592Z,4.97
2022-11-01T05:06:53.843Z,4.28
2022-11-01T05:09:25.977Z,4.85
2022-11-01T05:12:00.165Z,5.75
2022-11-01T05:14:33.315Z,6.28
2022-11-01T05:17:03.184Z,5.72
2022-11-01T05:19:35.333Z,4.65
2022-11-01T05:22:05.755Z,5.20
2022-11-01T05:24:36.634Z,5.82
2022-11-01T05:27:10.741Z,5.57
2022-11-01T05:29:38.328Z,5.13
2022-11-01T05:32:09.240Z,4.45
2022-11-01T05:34:46.630Z,5.20
2022-11-01T05:37:34.201Z,5.22
2022-11-01T05:40:13.767Z,5.63
2022-11-01T05:42:41.772Z,8.25
2022-11-01T05:47:55.200Z,5.93
2022-11-01T05:50:36.197Z,5.00
2022-11-01T05:53:16.078Z,5.13
2022-11-01T05:55:49.652Z,6.35
2022-11-01T05:58:20.632Z,5.97
2022-11-01T06:01:18.599Z,5.28
2022-11-01T06:03:54.541Z,4.07
2022-11-01T06:06:22.813Z,4.25
2022-11-01T06:08:52.882Z,5.35
2022-11-01T06:12:20.408Z,5.70
2022-11-01T06:15:23.183Z,4.65
2022-11-01T06:18:01.372Z,5.50
2022-11-01T06:20:36.798Z,4.43
2022-11-01T06:23:10.045Z,4.10
2022-11-01T06:25:57.536Z,4.97
2022-11-01T06:28:31.077Z,5.75
2022-11-01T06:31:17.271Z,6.43
2022-11-01T06:33:48.217Z,5.90
2022-11-01T06:36:42.951Z,5.57
2022-11-01T06:39:17.793Z,4.85
2022-11-01T06:42:06.632Z,6.25
2022-11-01T06:44:38.710Z,7.20
2022-11-01T06:47:13.800Z,7.70
2022-11-01T06:49:44.177Z,6.47
2022-11-01T06:52:22.074Z,6.60
2022-11-01T06:55:40.599Z,6.50
2022-11-01T06:58:18.196Z,7.70
2022-11-01T07:00:54.087Z,7.22
2022-11-01T07:03:27.097Z,9.40
2022-11-01T07:06:00.642Z,8.25
2022-11-01T07:08:28.572Z,6.00
2022-11-01T07:11:07.180Z,7.43
2022-11-01T07:13:37.318Z,6.45
2022-11-01T07:22:58.448Z,7.95
2022-11-01T07:25:46.823Z,6.60
2022-11-01T07:28:21.701Z,6.25
2022-11-01T07:30:50.961Z,7.13
2022-11-01T07:33:25.751Z,5.75
2022-11-01T07:35:53.880Z,5.32
2022-11-01T07:38:29.460Z,6.05
2022-11-01T07:41:07.376Z,5.13
2022-11-01T07:46:47.561Z,5.70
2022-11-01T07:49:28.858Z,5.65
2022-11-01T07:52:17.841Z,8.70
2022-11-01T07:54:58.401Z,7.88
2022-11-01T07:57:29.821Z,7.15
2022-11-01T08:00:05.628Z,7.10
2022-11-01T08:02:33.309Z,5.68
2022-11-01T08:05:21.129Z,6.35
2022-11-01T08:11:25.728Z,5.10
2022-11-01T08:14:04.373Z,6.47
2022-11-01T08:16:37.727Z,7.10
2022-11-01T08:19:11.512Z,5.55
2022-11-01T08:21:55.934Z,7.60
2022-11-01T08:24:27.172Z,5.97
2022-11-01T08:27:50.225Z,7.10
2022-11-01T08:30:22.231Z,9.18
2022-11-01T08:33:11.034Z,12.07
2022-11-01T08:39:59.882Z,10.13
2022-11-01T08:42:56.848Z,10.75
2022-11-01T08:45:36.279Z,11.93
2022-11-01T08:49:05.375Z,10.05
2022-11-01T08:52:21.083Z,8.73
2022-11-01T08:57:58.314Z,8.93
2022-11-01T09:03:45.260Z,6.43
2022-11-01T09:06:15.371Z,5.28
2022-11-01T09:08:53.777Z,6.15
2022-11-01T09:14:12.777Z,7.15
2022-11-01T09:19:50.680Z,5.47
2022-11-01T09:25:09.428Z,5.32
2022-11-01T09:27:42.477Z,5.95
2022-11-01T09:30:10.568Z,6.47
2022-11-01T09:32:44.354Z,5.47
2022-11-01T09:35:21.332Z,6.15
2022-11-01T09:41:13.141Z,6.07
2022-11-01T09:43:58.918Z,5.68
2022-11-01T09:47:24.857Z,5.35
2022-11-01T09:50:18.676Z,6.65
2022-11-01T09:53:01.793Z,7.28
2022-11-01T09:56:23.920Z,6.70
2022-11-01T09:59:16.182Z,8.48
2022-11-01T10:02:42.141Z,8.25
2022-11-01T10:05:33.241Z,7.22
2022-11-01T10:09:10.784Z,6.60
2022-11-01T10:12:55.088Z,7.00
2022-11-01T10:16:12.624Z,4.60
2022-11-01T10:19:06.763Z,6.95
2022-11-01T10:25:31.352Z,4.88
2022-11-01T10:28:31.490Z,7.13
2022-11-01T10:31:24.087Z,7.57
2022-11-01T10:34:14.697Z,7.25
2022-11-01T10:36:54.270Z,7.95
2022-11-01T10:40:04.719Z,7.18
2022-11-01T10:44:33.754Z,9.05
2022-11-01T10:47:07.967Z,8.52
2022-11-01T10:50:15.225Z,6.50
2022-11-01T10:53:22.523Z,5.10
2022-11-01T10:56:00.392Z,7.45
2022-11-01T10:58:45.389Z,5.88
2022-11-01T11:01:47.122Z,7.63
2022-11-01T11:04:28.235Z,6.75
2022-11-01T11:07:00.286Z,7.97
2022-11-01T11:09:41.348Z,6.30
2022-11-01T11:12:47.650Z,6.65
2022-11-01T11:15:38.418Z,6.47
2022-11-01T11:18:53.697Z,7.32
2022-11-01T11:21:34.662Z,6.45
2022-11-01T11:24:05.002Z,6.88
2022-11-01T11:29:24.935Z,7.20
2022-11-01T11:32:00.066Z,6.93
2022-11-01T11:37:26.510Z,8.38
2022-11-01T11:40:29.605Z,8.05
2022-11-01T11:43:38.921Z,8.55
2022-11-01T11:46:55.050Z,8.27
2022-11-01T11:49:28.494Z,9.23
2022-11-01T11:52:14.785Z,8.07
2022-11-01T11:54:45.556Z,7.07
2022-11-01T11:57:49.530Z,8.90
2022-11-01T12:00:39.338Z,6.68
2022-11-01T12:03:19.084Z,6.30
2022-11-01T12:07:04.905Z,6.35
2022-11-01T12:10:09.509Z,7.22
2022-11-01T12:12:51.978Z,6.57
2022-11-01T12:15:51.488Z,8.77
2022-11-01T12:19:22.435Z,6.47
2022-11-01T12:21:38.217Z,6.95
2022-11-01T12:24:41.590Z,7.28
2022-11-01T12:27:20.596Z,6.50
2022-11-01T12:30:23.419Z,6.93
2022-11-01T12:32:56.480Z,6.30
2022-11-01T12:36:00.323Z,7.03
2022-11-01T12:38:43.830Z,8.90
2022-11-01T12:41:23.293Z,7.55
2022-11-01T12:44:08.460Z,7.25
2022-11-01T12:46:57.758Z,8.60
2022-11-01T12:50:31.708Z,9.40
2022-11-01T12:53:13.523Z,8.20
2022-11-01T12:56:02.953Z,8.35
2022-11-01T12:58:49.515Z,6.45
2022-11-01T13:01:58.009Z,8.35
2022-11-01T13:04:44.846Z,10.00
2022-11-01T13:07:47.852Z,10.32
2022-11-01T13:10:37.081Z,10.63
2022-11-01T13:13:08.079Z,10.73
2022-11-01T13:15:49.375Z,8.88
2022-11-01T13:19:01.850Z,10.02
2022-11-01T13:21:52.577Z,6.60
2022-11-01T13:24:46.467Z,7.28
2022-11-01T13:28:09.213Z,8.02
2022-11-01T13:31:03.903Z,9.05
2022-11-01T13:34:06.661Z,10.60
2022-11-01T13:39:29.823Z,9.25
2022-11-01T13:42:05.821Z,9.00
2022-11-01T13:48:08.183Z,10.35
2022-11-01T13:54:03.279Z,10.57
2022-11-01T13:57:01.159Z,11.05
2022-11-01T14:00:01.641Z,12.68
2022-11-01T14:02:55.401Z,12.70
2022-11-01T14:06:03.082Z,12.30
2022-11-01T14:11:55.967Z,13.00
2022-11-01T14:15:11.427Z,11.32
2022-11-01T14:18:02.442Z,10.93
2022-11-01T14:20:50.469Z,11.65
2022-11-01T14:23:36.060Z,14.20
2022-11-01T14:26:22.330Z,14.25
2022-11-01T14:29:01.111Z,14.32
2022-11-01T14:31:36.515Z,13.93
2022-11-01T14:34:27.803Z,12.98
2022-11-01T14:37:34.469Z,12.65
2022-11-01T14:40:31.840Z,9.18
2022-11-01T14:43:31.099Z,11.52
2022-11-01T14:46:14.958Z,10.85
2022-11-01T14:49:14.547Z,10.25
2022-11-01T14:56:25.827Z,12.10
2022-11-01T14:59:36.171Z,11.00
2022-11-01T15:02:06.459Z,12.57
2022-11-01T15:04:45.212Z,14.32
2022-11-01T15:07:40.131Z,10.98
2022-11-01T15:10:15.491Z,13.25
2022-11-01T15:12:55.950Z,13.00
2022-11-01T15:16:28.586Z,13.35
2022-11-01T15:19:28.891Z,9.77
2022-11-01T15:22:04.694Z,13.80
2022-11-01T15:24:36.787Z,11.40
2022-11-01T15:27:16.900Z,13.02
2022-11-01T15:29:47.691Z,9.95
2022-11-01T15:32:29.964Z,8.20
2022-11-01T15:35:00.743Z,11.88
2022-11-01T15:37:32.776Z,11.82
2022-11-01T15:40:43.150Z,13.88
2022-11-01T15:43:44.465Z,14.25
2022-11-01T15:46:19.180Z,13.52
2022-11-01T15:52:04.837Z,12.25
2022-11-01T15:58:26.529Z,12.40
2022-11-01T16:00:58.150Z,14.23
2022-11-01T16:06:27.942Z,12.68
2022-11-01T16:09:22.595Z,10.43
2022-11-01T16:12:36.992Z,10.35
2022-11-01T16:15:11.064Z,11.32
2022-11-01T16:17:44.189Z,10.32
2022-11-01T16:20:52.294Z,10.88
2022-11-01T16:24:11.484Z,12.52
2022-11-01T16:27:04.071Z,12.30
2022-11-01T16:30:15.562Z,12.13
2022-11-01T16:32:44.005Z,9.88
2022-11-01T16:35:49.972Z,11.23
2022-11-01T16:38:40.397Z,11.35
2022-11-01T16:41:21.867Z,11.00
2022-11-01T16:43:54.469Z,14.20
2022-11-01T16:46:30.323Z,14.48
2022-11-01T16:49:24.671Z,12.15
2022-11-01T16:52:00.544Z,12.82
2022-11-01T16:57:33.242Z,13.23
2022-11-01T17:00:25.035Z,12.32
2022-11-01T17:03:00.209Z,12.60
2022-11-01T17:05:42.685Z,20.50
2022-11-01T17:09:17.658Z,13.00
2022-11-01T17:11:23.461Z,14.57
2022-11-01T17:13:56.834Z,13.82
2022-11-01T17:16:39.838Z,13.27
2022-11-01T17:19:22.722Z,12.40
2022-11-01T17:21:51.165Z,14.70
2022-11-01T17:24:24.819Z,16.02
2022-11-01T17:27:01.437Z,12.98
2022-11-01T17:29:31.776Z,9.48
2022-11-01T17:32:04.601Z,22.45
2022-11-01T17:35:09.585Z,15.18
2022-11-01T17:37:36.829Z,13.85
2022-11-01T17:40:21.913Z,14.20
2022-11-01T17:42:52.130Z,14.18
2022-11-01T17:45:33.034Z,17.90
2022-11-01T17:48:34.197Z,15.50
2022-11-01T17:51:08.456Z,13.05
2022-11-01T17:53:41.761Z,13.10
2022-11-01T17:56:16.445Z,19.95
2022-11-01T17:58:52.258Z,14.43
2022-11-01T18:01:33.868Z,13.77
2022-11-01T18:04:10.489Z,15.93
2022-11-01T18:06:44.297Z,17.65
2022-11-01T18:09:26.614Z,17.88
2022-11-01T18:12:23.773Z,18.10
2022-11-01T18:15:42.558Z,16.70
2022-11-01T18:18:46.269Z,17.02
2022-11-01T18:21:33.340Z,17.50
2022-11-01T18:24:10.535Z,12.32
2022-11-01T18:26:40.954Z,11.25
2022-11-01T18:29:26.325Z,13.07
2022-11-01T18:32:32.242Z,13.20
2022-11-01T18:35:06.882Z,12.30
2022-11-01T18:38:02.978Z,38.13
2022-11-01T18:40:44.535Z,21.40
2022-11-01T18:43:11.809Z,17.05
2022-11-01T18:45:57.751Z,15.02
2022-11-01T18:48:33.864Z,12.57
2022-11-01T18:51:30.663Z,11.05
2022-11-01T18:56:45.960Z,12.10
2022-11-01T18:59:17.995Z,11.73
2022-11-01T19:01:54.418Z,16.67
2022-11-01T19:04:25.923Z,18.10
2022-11-01T19:07:23.308Z,17.77
2022-11-01T19:10:01.418Z,18.38
2022-11-01T19:12:41.352Z,17.58
2022-11-01T19:15:13.238Z,15.85
2022-11-01T19:17:45.336Z,12.48
2022-11-01T19:20:38.867Z,11.85
2022-11-01T19:23:40.812Z,11.35
2022-11-01T19:26:19.662Z,9.43
2022-11-01T19:28:52.373Z,9.25
2022-11-01T19:31:26.305Z,11.27
2022-11-01T19:34:20.384Z,11.95
2022-11-01T19:36:57.824Z,12.63
2022-11-01T19:39:27.363Z,12.70
2022-11-01T19:42:09.427Z,17.33
2022-11-01T19:44:36.845Z,13.07
2022-11-01T19:47:32.296Z,13.68
2022-11-01T19:49:59.796Z,13.25
2022-11-01T19:56:04.276Z,14.60
2022-11-01T19:58:57.701Z,13.38
2022-11-01T20:01:34.220Z,13.70
2022-11-01T20:04:16.918Z,13.52
2022-11-01T20:06:56.075Z,13.88
2022-11-01T20:09:29.240Z,20.33
2022-11-01T20:11:56.953Z,20.60
2022-11-01T20:14:27.097Z,17.02
2022-11-01T20:16:56.450Z,19.17
2022-11-01T20:19:23.939Z,21.38
2022-11-01T20:21:52.100Z,20.60
2022-11-01T20:24:22.471Z,19.23
2022-11-01T20:26:50.808Z,19.05
2022-11-01T20:29:20.688Z,21.67
2022-11-01T20:31:48.690Z,21.60
2022-11-01T20:34:18.754Z,19.42
2022-11-01T20:37:14.910Z,15.38
2022-11-01T20:39:43.879Z,16.67
2022-11-01T20:42:14.517Z,24.50
2022-11-01T20:44:43.433Z,17.70
2022-11-01T20:47:10.736Z,16.17
2022-11-01T20:49:42.331Z,19.52
2022-11-01T20:52:33.643Z,19.40
2022-11-01T20:54:57.670Z,15.27
2022-11-01T20:57:28.416Z,12.70
2022-11-01T20:59:56.669Z,18.38
2022-11-01T21:02:24.787Z,19.27
2022-11-01T21:05:16.779Z,15.23
2022-11-01T21:07:47.777Z,14.02
2022-11-01T21:10:40.329Z,16.45
2022-11-01T21:15:49.336Z,12.15
2022-11-01T21:18:17.450Z,13.88
2022-11-01T21:20:53.693Z,12.35
2022-11-01T21:23:43.214Z,15.00
2022-11-01T21:26:22.965Z,15.77
2022-11-01T21:28:53.549Z,13.57
2022-11-01T21:31:38.671Z,11.13
2022-11-01T21:34:14.913Z,11.75
2022-11-01T21:36:51.372Z,13.70
2022-11-01T21:39:27.123Z,11.32
2022-11-01T21:42:07.446Z,12.05
2022-11-01T21:47:33.931Z,9.80
2022-11-01T21:50:04.090Z,13.32
2022-11-01T21:52:31.397Z,12.25
2022-11-01T21:55:01.837Z,10.52
2022-11-01T21:57:33.469Z,12.48
2022-11-01T22:00:03.775Z,12.52
2022-11-01T22:02:31.796Z,13.35
2022-11-01T22:04:59.013Z,13.02
2022-11-01T22:07:28.368Z,10.85
2022-11-01T22:09:55.594Z,11.70
2022-11-01T22:12:24.629Z,12.60
2022-11-01T22:14:54.573Z,12.50
2022-11-01T22:17:22.132Z,12.18
2022-11-01T22:19:49.677Z,12.45
2022-11-01T22:22:23.267Z,12.55
2022-11-01T22:24:52.583Z,15.13
2022-11-01T22:27:20.283Z,13.98
2022-11-01T22:29:51.905Z,13.18
2022-11-01T22:32:24.672Z,12.48
2022-11-01T22:34:57.185Z,12.15
2022-11-01T22:37:25.206Z,13.25
2022-11-01T22:39:53.878Z,15.98
2022-11-01T22:42:21.257Z,13.40
2022-11-01T22:44:52.019Z,12.25
2022-11-01T22:47:30.146Z,11.77
2022-11-01T22:50:02.866Z,13.15
2022-11-01T22:52:35.101Z,17.42
2022-11-01T22:55:15.063Z,13.95
2022-11-01T22:57:57.972Z,15.32
2022-11-01T23:00:46.764Z,15.55
2022-11-01T23:03:50.713Z,15.15
2022-11-01T23:06:21.662Z,16.42
2022-11-01T23:08:48.789Z,14.38
2022-11-01T23:11:41.238Z,15.00
2022-11-01T23:14:36.281Z,11.88
2022-11-01T23:17:28.799Z,19.65
2022-11-01T23:20:02.287Z,12.23
2022-11-01T23:22:36.199Z,12.25
2022-11-01T23:25:12.011Z,12.68
2022-11-01T23:27:43.308Z,11.38
2022-11-01T23:30:13.431Z,11.10
2022-11-01T23:32:42.534Z,11.30
2022-11-01T23:35:21.638Z,9.40
2022-11-01T23:37:50.702Z,10.48
2022-11-01T23:40:30.958Z,12.18
2022-11-01T23:42:58.565Z,13.65
2022-11-01T23:45:33.310Z,10.63
2022-11-01T23:48:02.083Z,12.70
2022-11-01T23:50:38.991Z,13.70
2022-11-01T23:53:12.211Z,13.00
2022-11-01T23:55:52.280Z,12.52
